Time;durP1;ratioP1;P1;durP2;ratioP2;P2;SDS_P1;SDS_P2;PMS_P1;PMS_P2;Temp;Humidity;BMP_temperature;BMP_pressure;BME280_temperature;BME280_humidity;BME280_pressure;Samples;Min_cycle;Max_cycle;Signal;HPM_P1;HPM_P2
2022/02/10 00:18:25;;;;;;;4.40;3.08;;;4.90;99.90;;;;;;5064774;28;20195;-71
2022/02/10 00:20:55;;;;;;;6.30;3.95;;;4.80;99.90;;;;;;5064134;28;20196;-71
2022/02/10 00:23:38;;;;;;;3.67;2.95;;;4.60;99.90;;;;;;5064658;28;20255;-70
2022/02/10 00:34:28;;;;;;;3.75;3.00;;;4.50;99.90;;;;;;5064593;28;20890;-72
2022/02/10 00:37:10;;;;;;;4.10;3.50;;;4.40;99.90;;;;;;5064742;28;20226;-72
2022/02/10 00:40:03;;;;;;;4.88;3.72;;;4.30;99.90;;;;;;5063787;28;20311;-73
2022/02/10 00:42:32;;;;;;;4.80;3.17;;;4.30;99.90;;;;;;5064147;28;20204;-72
2022/02/10 00:44:58;;;;;;;3.83;3.10;;;4.10;99.90;;;;;;5064383;28;20217;-72
2022/02/10 00:47:28;;;;;;;5.38;3.42;;;4.00;99.90;;;;;;5063962;28;21007;-72
2022/02/10 00:49:58;;;;;;;4.32;2.70;;;3.90;99.90;;;;;;5064179;28;20309;-72
2022/02/10 00:52:25;;;;;;;4.65;3.17;;;3.80;99.90;;;;;;5063494;28;20257;-72
2022/02/10 00:54:51;;;;;;;4.82;3.13;;;3.60;99.90;;;;;;5064553;28;20236;-72
2022/02/10 00:57:21;;;;;;;4.43;3.35;;;3.50;99.90;;;;;;5064074;28;20754;-72
2022/02/10 01:00:05;;;;;;;5.18;3.90;;;3.50;99.90;;;;;;5063649;28;20756;-72
2022/02/10 01:10:54;;;;;;;4.78;3.35;;;3.10;99.90;;;;;;5062749;28;20667;-71
2022/02/10 01:13:40;;;;;;;3.80;2.83;;;3.00;99.90;;;;;;5064048;28;20200;-71
2022/02/10 01:24:37;;;;;;;4.85;3.00;;;2.60;99.90;;;;;;5062668;28;20219;-72
2022/02/10 01:29:49;;;;;;;3.90;3.15;;;2.40;99.90;;;;;;5066007;28;20231;-72
2022/02/10 01:32:18;;;;;;;4.85;3.08;;;2.30;99.90;;;;;;5066478;28;20209;-71
2022/02/10 01:34:49;;;;;;;3.58;2.90;;;2.20;99.90;;;;;;5067152;28;20204;-72
2022/02/10 01:37:16;;;;;;;4.22;3.10;;;2.20;99.90;;;;;;5066797;28;20221;-71
2022/02/10 01:39:48;;;;;;;4.60;3.08;;;2.10;99.90;;;;;;5065397;28;20200;-70
2022/02/10 02:04:21;;;;;;;3.60;3.30;;;1.70;99.90;;;;;;5066624;28;20199;-71
2022/02/10 02:06:49;;;;;;;3.58;3.17;;;1.60;99.90;;;;;;5067086;28;20546;-73
2022/02/10 02:09:18;;;;;;;3.15;2.75;;;1.60;99.90;;;;;;5070515;28;20200;-71
2022/02/10 02:11:46;;;;;;;4.57;3.50;;;1.50;99.90;;;;;;5071717;28;20368;-70
2022/02/10 02:14:15;;;;;;;5.18;2.80;;;1.50;99.90;;;;;;5066173;28;20573;-74
2022/02/10 02:16:46;;;;;;;4.47;2.63;;;1.50;99.90;;;;;;5053404;28;20294;-71
2022/02/10 02:19:13;;;;;;;6.25;3.20;;;1.60;99.90;;;;;;5052721;28;20205;-71
2022/02/10 02:21:41;;;;;;;5.07;2.80;;;1.80;99.90;;;;;;5050310;28;20205;-72
2022/02/10 02:24:13;;;;;;;3.33;2.85;;;2.10;99.90;;;;;;5049442;28;20205;-71
2022/02/10 02:26:40;;;;;;;4.97;2.88;;;2.20;99.90;;;;;;5049527;28;20229;-71
2022/02/10 02:29:09;;;;;;;5.45;2.75;;;2.30;99.90;;;;;;5049064;28;20212;-70
2022/02/10 02:31:41;;;;;;;2.72;2.53;;;2.30;99.90;;;;;;5050418;28;20719;-74
2022/02/10 02:34:37;;;;;;;4.75;2.60;;;2.40;99.90;;;;;;5052031;28;20291;-73
2022/02/10 02:37:26;;;;;;;3.75;2.65;;;2.40;99.90;;;;;;5052148;28;20773;-73
2022/02/10 03:05:04;;;;;;;3.95;2.95;;;4.20;99.90;;;;;;5051100;28;20228;-74
2022/02/10 03:07:44;;;;;;;3.40;2.85;;;4.20;99.90;;;;;;5051200;28;20262;-74
2022/02/10 03:12:57;;;;;;;4.35;2.72;;;4.30;99.90;;;;;;5050985;28;20227;-73
2022/02/10 03:15:29;;;;;;;4.75;3.10;;;4.30;99.90;;;;;;5051296;28;20705;-74
2022/02/10 03:18:15;;;;;;;2.90;2.47;;;4.20;99.90;;;;;;5051542;28;20205;-73
2022/02/10 03:20:58;;;;;;;3.28;2.63;;;4.30;99.90;;;;;;5051064;28;20292;-73
2022/02/10 04:04:58;;;;;;;2.90;2.50;;;4.60;99.90;;;;;;5049926;28;20263;-74
2022/02/10 04:07:42;;;;;;;3.72;3.17;;;4.60;99.90;;;;;;5050538;28;20580;-73
2022/02/10 04:10:32;;;;;;;2.75;2.55;;;4.60;99.90;;;;;;5050032;28;20712;-74
2022/02/10 04:13:11;;;;;;;4.10;2.65;;;4.70;99.90;;;;;;5050097;28;20197;-74
2022/02/10 04:15:44;;;;;;;4.15;2.53;;;4.70;99.90;;;;;;5050262;28;20217;-74
2022/02/10 04:21:07;;;;;;;5.95;2.78;;;4.80;99.90;;;;;;5041283;28;20743;-74
2022/02/10 04:23:47;;;;;;;3.15;2.25;;;4.70;99.90;;;;;;5049948;28;20213;-74
2022/02/10 04:26:29;;;;;;;7.68;2.65;;;4.70;99.90;;;;;;5050279;28;20704;-73
2022/02/10 04:32:11;;;;;;;6.32;2.60;;;4.80;99.90;;;;;;5038034;28;20289;-73
2022/02/10 04:43:30;;;;;;;3.58;2.83;;;4.60;99.90;;;;;;5045625;28;20235;-73
2022/02/10 04:57:12;;;;;;;4.18;2.65;;;4.60;99.90;;;;;;5016876;28;20293;-74
2022/02/10 05:00:01;;;;;;;4.05;2.85;;;4.50;99.90;;;;;;5048186;28;20197;-74
2022/02/10 05:06:02;;;;;;;3.90;2.80;;;4.50;99.90;;;;;;5051480;28;20306;-73
2022/02/10 05:33:36;;;;;;;6.45;2.70;;;4.20;99.90;;;;;;5051867;28;20231;-72
2022/02/10 05:36:05;;;;;;;2.95;2.67;;;4.20;99.90;;;;;;5052692;28;20232;-72
2022/02/10 05:38:37;;;;;;;4.10;2.95;;;4.10;99.90;;;;;;5052660;28;20612;-72
2022/02/10 05:43:59;;;;;;;4.57;3.28;;;4.10;99.90;;;;;;5051788;28;20208;-72
2022/02/10 05:46:45;;;;;;;2.90;2.35;;;4.10;99.90;;;;;;5051851;28;20233;-72
2022/02/10 05:52:42;;;;;;;3.17;2.67;;;4.20;99.90;;;;;;5051978;28;20227;-72
2022/02/10 05:55:27;;;;;;;3.72;2.60;;;4.20;99.90;;;;;;5052164;28;20211;-72
2022/02/10 05:58:00;;;;;;;6.10;3.15;;;4.30;99.90;;;;;;5051859;28;20205;-72
2022/02/10 06:50:29;;;;;;;3.88;3.30;;;4.70;99.90;;;;;;5051071;28;20813;-72
2022/02/10 06:53:15;;;;;;;3.22;2.90;;;4.70;99.90;;;;;;5050627;28;20201;-72
2022/02/10 06:56:13;;;;;;;4.30;2.80;;;4.70;99.90;;;;;;5050867;28;20240;-72
2022/02/10 07:04:37;;;;;;;3.03;2.53;;;4.70;99.90;;;;;;5050764;28;20695;-72
2022/02/10 07:13:03;;;;;;;4.05;2.70;;;4.80;99.90;;;;;;5049961;28;20734;-72
2022/02/10 07:15:59;;;;;;;5.65;3.00;;;4.90;99.90;;;;;;5051042;28;20224;-72
2022/02/10 07:44:50;;;;;;;4.72;2.95;;;5.20;99.90;;;;;;5049523;28;20327;-71
2022/02/10 07:49:35;;;;;;;4.53;3.80;;;5.40;99.90;;;;;;5050162;28;20239;-72
2022/02/10 07:52:31;;;;;;;3.80;2.95;;;5.70;99.90;;;;;;5050064;28;20735;-72
2022/02/10 07:57:51;;;;;;;4.80;3.17;;;7.90;99.90;;;;;;5049682;28;20204;-72
2022/02/10 08:50:06;;;;;;;3.07;2.77;;;16.60;87.70;;;;;;5028277;28;20479;-72
2022/02/10 08:53:37;;;;;;;3.93;2.80;;;16.70;88.30;;;;;;5048825;28;20522;-72
2022/02/10 08:55:55;;;;;;;3.57;2.87;;;17.50;87.20;;;;;;5048619;28;20561;-72
2022/02/10 08:58:46;;;;;;;3.40;2.73;;;17.80;86.10;;;;;;5049328;28;20455;-72
2022/02/10 09:04:07;;;;;;;5.13;2.80;;;19.10;84.40;;;;;;5048807;28;20451;-72
2022/02/10 09:06:51;;;;;;;5.83;3.23;;;20.00;83.70;;;;;;5048915;28;20481;-72
2022/02/10 09:10:01;;;;;;;4.60;3.03;;;20.50;82.90;;;;;;5049267;28;20888;-72
2022/02/10 09:12:49;;;;;;;3.10;2.60;;;20.70;81.00;;;;;;5048534;28;20483;-72
2022/02/10 09:15:45;;;;;;;4.13;3.20;;;21.40;81.60;;;;;;5049100;28;20470;-72
2022/02/10 09:18:32;;;;;;;5.70;2.97;;;21.30;79.90;;;;;;5049550;28;20905;-72
2022/02/10 09:21:27;;;;;;;6.93;3.50;;;21.40;79.20;;;;;;5049535;28;20556;-71
2022/02/10 10:00:19;;;;;;;3.10;2.80;;;24.30;73.60;;;;;;5050921;28;20943;-91
2022/02/10 10:02:55;;;;;;;6.70;3.33;;;24.50;73.40;;;;;;5053398;28;20484;-90
2022/02/10 10:05:37;;;;;;;6.83;3.13;;;24.60;71.70;;;;;;5054096;28;20472;-92
2022/02/10 10:08:21;;;;;;;4.93;3.00;;;23.90;72.60;;;;;;5054011;28;20457;-91
2022/02/10 10:11:33;;;;;;;6.07;3.53;;;24.30;72.20;;;;;;5057305;28;20448;-91
2022/02/10 10:17:22;;;;;;;3.77;2.87;;;23.30;73.60;;;;;;5058173;28;20456;-95
2022/02/10 10:23:04;;;;;;;4.63;3.13;;;24.70;73.60;;;;;;5051919;28;20495;-92
2022/02/10 10:26:11;;;;;;;4.13;3.10;;;24.70;71.70;;;;;;5054564;28;20483;-92
2022/02/10 10:53:55;;;;;;;4.90;3.47;;;18.60;79.70;;;;;;5056906;28;20453;-92
2022/02/10 10:56:27;;;;;;;6.57;3.37;;;16.80;83.60;;;;;;5073962;22;20552;-76
2022/02/10 10:59:32;;;;;;;5.10;3.93;;;16.20;85.60;;;;;;5063345;28;20842;-76
2022/02/10 11:39:37;;;;;;;8.27;3.67;;;22.30;77.70;;;;;;5049811;28;20458;-75
2022/02/10 11:42:31;;;;;;;3.80;3.27;;;22.30;77.40;;;;;;5050422;28;20491;-74
2022/02/10 11:59:38;;;;;;;4.60;3.57;;;20.30;79.00;;;;;;5027927;28;20451;-74
2022/02/10 13:29:07;;;;;;;6.05;5.07;;;10.80;97.00;;;;;;5052847;28;20192;-76
2022/02/10 13:32:07;;;;;;;5.40;4.20;;;10.70;97.00;;;;;;5052346;28;20299;-75
2022/02/10 14:13:17;;;;;;;8.20;4.78;;;9.90;99.00;;;;;;5052447;28;20255;-75
2022/02/10 14:15:59;;;;;;;6.95;5.15;;;9.80;99.20;;;;;;5052574;28;20311;-75
2022/02/10 14:18:29;;;;;;;9.30;4.57;;;9.80;99.20;;;;;;5053219;28;20292;-75
2022/02/10 14:21:03;;;;;;;9.25;5.40;;;9.70;99.30;;;;;;5053121;28;20197;-75
2022/02/10 14:28:54;;;;;;;6.07;4.70;;;9.60;99.50;;;;;;5050733;28;20205;-75
2022/02/10 14:31:21;;;;;;;5.53;4.88;;;9.40;99.70;;;;;;5052622;28;20208;-75
2022/02/10 14:33:51;;;;;;;6.55;4.85;;;9.40;99.80;;;;;;5051907;28;20644;-76
2022/02/10 14:36:23;;;;;;;9.18;5.07;;;9.30;99.90;;;;;;5052057;28;20722;-75
2022/02/10 14:38:57;;;;;;;8.73;5.35;;;9.30;99.80;;;;;;5052366;28;20205;-75
2022/02/10 14:41:56;;;;;;;8.40;5.05;;;9.30;99.80;;;;;;5052690;28;20209;-75
2022/02/10 15:53:53;;;;;;;3.75;3.40;;;8.00;99.90;;;;;;5113243;22;21078;-90
2022/02/10 16:18:30;;;;;;;3.45;2.95;;;7.70;99.80;;;;;;4988624;28;20281;-72
2022/02/10 16:21:00;;;;;;;3.28;2.97;;;7.80;99.80;;;;;;4990217;28;20207;-73
2022/02/10 16:23:30;;;;;;;4.10;3.08;;;7.70;99.80;;;;;;4989428;28;20210;-73
2022/02/10 16:26:10;;;;;;;5.85;2.92;;;7.70;99.90;;;;;;4989180;28;20819;-73
2022/02/10 16:28:40;;;;;;;3.78;2.78;;;7.70;99.70;;;;;;4990241;28;20226;-73
2022/02/10 16:31:10;;;;;;;3.95;2.88;;;7.70;99.60;;;;;;4990156;28;20203;-73
2022/02/10 16:33:41;;;;;;;4.53;2.90;;;7.70;99.70;;;;;;4989137;28;20223;-73
2022/02/10 16:36:16;;;;;;;3.90;3.50;;;7.70;99.80;;;;;;4989545;28;20231;-73
2022/02/10 16:38:43;;;;;;;6.32;4.25;;;7.70;99.90;;;;;;4989543;28;20206;-72
2022/02/10 16:41:10;;;;;;;5.57;3.88;;;7.60;99.90;;;;;;4989096;28;20210;-72
2022/02/10 16:43:37;;;;;;;3.70;3.05;;;7.60;99.90;;;;;;4990244;28;20549;-72
2022/02/10 16:46:04;;;;;;;4.93;3.70;;;7.60;99.90;;;;;;4989922;28;20223;-72
2022/02/10 16:48:33;;;;;;;6.32;3.65;;;7.60;99.50;;;;;;4990009;28;20675;-73
2022/02/10 16:51:00;;;;;;;4.47;2.80;;;7.60;99.40;;;;;;4999573;28;20190;-72
2022/02/10 16:53:29;;;;;;;4.88;2.90;;;7.50;99.30;;;;;;5009031;28;20635;-72
2022/02/10 16:56:01;;;;;;;5.22;2.90;;;7.50;99.30;;;;;;5008881;28;20218;-72
2022/02/10 16:58:33;;;;;;;3.00;2.70;;;7.40;99.40;;;;;;5010252;28;20301;-72
2022/02/10 17:15:49;;;;;;;3.67;3.20;;;7.40;99.30;;;;;;5004677;28;20282;-74
2022/02/10 17:18:20;;;;;;;3.80;3.15;;;7.40;99.30;;;;;;4991556;28;20188;-75
2022/02/10 17:20:55;;;;;;;3.80;2.70;;;7.40;99.40;;;;;;4992883;28;20206;-74
2022/02/10 17:26:27;;;;;;;3.30;3.00;;;7.40;99.50;;;;;;4993215;28;20258;-74
2022/02/10 17:28:56;;;;;;;3.22;2.80;;;7.30;99.60;;;;;;4993514;28;20203;-75
2022/02/10 17:31:39;;;;;;;3.55;2.90;;;7.30;99.70;;;;;;4993559;28;20211;-75
2022/02/10 17:34:24;;;;;;;4.38;3.00;;;7.30;99.80;;;;;;4993610;28;20321;-75
2022/02/10 17:37:07;;;;;;;4.30;2.78;;;7.20;99.90;;;;;;4994027;28;20640;-74
2022/02/10 17:42:37;;;;;;;3.45;3.15;;;7.20;99.90;;;;;;4994141;28;20205;-74
2022/02/10 17:45:21;;;;;;;4.50;2.95;;;7.20;99.90;;;;;;4992522;28;20199;-74
2022/02/10 17:53:25;;;;;;;2.78;2.42;;;7.10;99.90;;;;;;4991886;28;20230;-75
2022/02/10 17:55:52;;;;;;;6.03;3.20;;;7.00;99.90;;;;;;4992367;28;20261;-75
2022/02/10 17:58:22;;;;;;;4.88;3.00;;;7.00;99.90;;;;;;4993049;28;20214;-75
2022/02/10 18:00:49;;;;;;;3.58;2.50;;;7.00;99.90;;;;;;4993272;28;20206;-74
2022/02/10 18:03:17;;;;;;;3.30;2.72;;;7.00;99.90;;;;;;4991441;28;20211;-75
2022/02/10 18:06:17;;;;;;;3.15;2.63;;;6.90;99.90;;;;;;4993039;28;20223;-75
2022/02/10 18:08:54;;;;;;;4.88;3.13;;;6.90;99.90;;;;;;5010192;28;20194;-75
2022/02/10 18:14:08;;;;;;;2.88;2.20;;;7.00;99.90;;;;;;5016204;28;20296;-75
2022/02/10 18:16:39;;;;;;;4.30;2.53;;;7.00;99.90;;;;;;5011309;28;20214;-75
2022/02/10 18:19:10;;;;;;;2.97;2.67;;;6.90;99.90;;;;;;5012118;28;20360;-75
2022/02/10 18:24:56;;;;;;;5.18;3.70;;;6.90;99.90;;;;;;5107949;27;20529;-74
2022/02/10 18:27:36;;;;;;;3.92;2.75;;;7.00;99.90;;;;;;5087005;28;20318;-72
2022/02/10 18:30:17;;;;;;;3.15;2.85;;;7.00;99.90;;;;;;5087341;28;20205;-76
2022/02/10 19:08:59;;;;;;;3.92;2.80;;;6.80;99.90;;;;;;5077022;28;20235;-74
2022/02/10 19:11:26;;;;;;;2.38;2.13;;;6.70;99.90;;;;;;5086529;28;20270;-74
2022/02/10 19:13:56;;;;;;;4.38;2.80;;;6.60;99.90;;;;;;5086249;28;20192;-73
2022/02/10 19:16:25;;;;;;;4.00;3.10;;;6.70;99.90;;;;;;5075080;28;20217;-74
2022/02/10 19:18:52;;;;;;;2.60;2.20;;;6.70;99.90;;;;;;5085422;28;20677;-74
2022/02/10 19:21:19;;;;;;;3.55;2.92;;;6.60;99.90;;;;;;5086136;28;20199;-74
2022/02/10 19:23:46;;;;;;;3.78;2.80;;;6.60;99.90;;;;;;5085668;28;20675;-74
2022/02/10 19:26:13;;;;;;;3.60;2.83;;;6.60;99.90;;;;;;5086065;28;20228;-74
2022/02/10 19:28:40;;;;;;;3.30;3.00;;;6.60;99.90;;;;;;5086416;28;20203;-74
2022/02/10 19:31:09;;;;;;;4.60;3.00;;;6.60;99.90;;;;;;5086353;28;20199;-74
2022/02/10 19:33:36;;;;;;;3.10;2.70;;;6.60;99.90;;;;;;5086170;28;20203;-74
2022/02/10 19:36:04;;;;;;;3.13;2.60;;;6.50;99.90;;;;;;5071741;28;20227;-75
2022/02/10 19:38:31;;;;;;;3.47;2.65;;;6.50;99.90;;;;;;5072980;28;20196;-74
2022/02/10 19:40:58;;;;;;;2.65;2.45;;;6.50;99.90;;;;;;5072148;28;20204;-74
2022/02/10 19:43:26;;;;;;;5.85;2.80;;;6.40;99.90;;;;;;5072156;28;20695;-74
2022/02/10 19:45:53;;;;;;;3.85;2.67;;;6.40;99.90;;;;;;5072470;28;20646;-74
2022/02/10 19:48:22;;;;;;;3.28;2.70;;;6.40;99.90;;;;;;5072079;28;20215;-74
2022/02/10 19:50:51;;;;;;;4.80;3.05;;;6.30;99.90;;;;;;5071953;28;20295;-74
2022/02/10 19:53:19;;;;;;;6.18;3.25;;;6.30;99.90;;;;;;5071436;28;20205;-74
2022/02/10 19:55:49;;;;;;;2.90;2.60;;;6.30;99.90;;;;;;5071737;28;20314;-74
2022/02/10 19:58:20;;;;;;;4.47;3.28;;;6.30;99.90;;;;;;5072061;28;20200;-75
2022/02/10 20:00:48;;;;;;;3.58;2.80;;;6.30;99.90;;;;;;5071899;28;20239;-75
2022/02/10 20:03:17;;;;;;;2.90;2.60;;;6.20;99.90;;;;;;5071774;28;20319;-75
2022/02/10 20:05:48;;;;;;;4.13;3.08;;;6.20;99.90;;;;;;5071785;28;20228;-75
2022/02/10 20:08:17;;;;;;;5.57;3.30;;;6.20;99.90;;;;;;5071793;28;20211;-75
2022/02/10 20:10:44;;;;;;;2.45;2.25;;;6.10;99.90;;;;;;5072001;28;20204;-74
2022/02/10 20:13:16;;;;;;;2.78;2.58;;;6.20;99.90;;;;;;5073828;28;20554;-74
2022/02/10 20:15:43;;;;;;;2.78;2.58;;;6.10;99.90;;;;;;5069538;28;20953;-75
2022/02/10 20:18:12;;;;;;;3.05;2.75;;;6.10;99.90;;;;;;5069264;28;20641;-74
2022/02/10 20:20:41;;;;;;;3.60;3.00;;;6.10;99.90;;;;;;5068547;28;20641;-74
2022/02/10 20:23:09;;;;;;;3.72;3.33;;;6.00;99.90;;;;;;5067890;28;20713;-72
2022/02/10 20:25:37;;;;;;;5.10;2.90;;;6.00;99.90;;;;;;5067070;28;20836;-74
2022/02/10 20:28:06;;;;;;;5.30;3.50;;;6.00;99.90;;;;;;5073109;28;20204;-74
2022/02/10 20:30:33;;;;;;;4.80;3.90;;;6.00;99.90;;;;;;5075213;28;20196;-72
2022/02/10 20:33:00;;;;;;;5.57;3.40;;;5.90;99.90;;;;;;5073586;28;20197;-74
2022/02/10 20:35:27;;;;;;;7.00;3.03;;;5.90;99.90;;;;;;5068826;28;20224;-73
2022/02/10 20:37:59;;;;;;;3.75;2.92;;;5.90;99.90;;;;;;5069875;28;20201;-72
2022/02/10 20:40:34;;;;;;;4.40;3.50;;;5.90;99.90;;;;;;5069589;28;20215;-73
2022/02/10 20:43:05;;;;;;;7.65;3.80;;;5.90;99.90;;;;;;5068056;28;20222;-72
2022/02/10 20:45:34;;;;;;;5.95;4.30;;;5.80;99.90;;;;;;5067679;28;20676;-72
2022/02/10 20:48:01;;;;;;;5.63;3.75;;;5.80;99.90;;;;;;5068592;28;20250;-72
2022/02/10 20:50:28;;;;;;;8.38;4.88;;;5.80;99.90;;;;;;5068894;28;20227;-71
2022/02/10 20:52:55;;;;;;;11.52;5.75;;;5.80;99.90;;;;;;5067351;28;20433;-72
2022/02/10 20:55:22;;;;;;;3.92;3.10;;;5.80;99.90;;;;;;5067589;28;20228;-71
2022/02/10 20:57:50;;;;;;;6.88;3.83;;;5.80;99.90;;;;;;5067245;28;20208;-70
2022/02/10 21:00:18;;;;;;;5.18;3.50;;;5.80;99.90;;;;;;5069309;28;20687;-71
2022/02/10 21:02:47;;;;;;;5.53;3.92;;;5.70;99.90;;;;;;5068313;28;20277;-71
2022/02/10 21:05:27;;;;;;;7.18;4.05;;;5.70;99.90;;;;;;5068506;28;20206;-72
2022/02/10 21:08:03;;;;;;;8.45;4.43;;;5.70;99.90;;;;;;5068877;28;20261;-70
2022/02/10 21:10:31;;;;;;;6.45;3.95;;;5.70;99.90;;;;;;5068626;28;20200;-72
2022/02/10 21:12:59;;;;;;;5.50;2.80;;;5.60;99.90;;;;;;5067212;28;20576;-73
2022/02/10 21:15:29;;;;;;;3.90;2.80;;;5.60;99.90;;;;;;5066903;28;20832;-71
2022/02/10 21:18:01;;;;;;;3.65;3.08;;;5.60;99.90;;;;;;5067899;28;20230;-72
2022/02/10 21:20:30;;;;;;;2.97;2.60;;;5.60;99.90;;;;;;5069722;28;20682;-72
2022/02/10 21:23:05;;;;;;;3.30;2.53;;;5.60;99.90;;;;;;5067353;28;20255;-71
2022/02/10 21:25:36;;;;;;;4.18;2.88;;;5.60;99.90;;;;;;5066474;28;20594;-71
2022/02/10 21:28:14;;;;;;;3.40;2.95;;;5.60;99.90;;;;;;5066298;28;20205;-72
2022/02/10 21:30:41;;;;;;;2.90;2.65;;;5.50;99.90;;;;;;5065276;28;20203;-72
2022/02/10 21:33:14;;;;;;;5.25;2.90;;;5.60;99.90;;;;;;5066619;28;20599;-72
2022/02/10 21:36:00;;;;;;;3.20;2.90;;;5.60;99.90;;;;;;5068191;28;20330;-72
2022/02/10 21:38:29;;;;;;;3.58;2.90;;;5.60;99.90;;;;;;5068989;28;20204;-73
2022/02/10 21:41:24;;;;;;;3.40;3.10;;;5.60;99.90;;;;;;5070431;28;20291;-72
2022/02/10 21:55:24;;;;;;;3.20;2.90;;;5.60;99.90;;;;;;5069830;28;20200;-72
2022/02/10 21:58:44;;;;;;;3.55;3.13;;;5.70;99.90;;;;;;5069862;28;20207;-71
2022/02/10 22:02:02;;;;;;;3.13;2.75;;;5.70;99.90;;;;;;5069837;28;20283;-72
2022/02/10 22:04:42;;;;;;;3.63;2.58;;;5.70;99.90;;;;;;5073431;28;20306;-72
2022/02/10 22:09:48;;;;;;;3.10;2.80;;;5.70;99.90;;;;;;5069947;28;20268;-72
2022/02/10 22:20:44;;;;;;;4.90;3.80;;;5.70;99.90;;;;;;5060623;28;20199;-73
2022/02/10 22:23:17;;;;;;;4.13;3.50;;;5.80;99.90;;;;;;5069749;28;20212;-73
2022/02/10 22:25:44;;;;;;;4.47;3.83;;;5.80;99.90;;;;;;5069112;28;20281;-73
2022/02/10 22:28:24;;;;;;;5.55;3.25;;;5.80;99.90;;;;;;5069677;28;20196;-73
2022/02/10 22:30:59;;;;;;;4.88;4.10;;;5.80;99.90;;;;;;5069695;28;20208;-73
2022/02/10 22:33:41;;;;;;;8.02;4.57;;;5.80;99.90;;;;;;5068314;28;20196;-73
2022/02/10 22:36:10;;;;;;;10.95;5.55;;;5.90;99.90;;;;;;5068720;28;20224;-72
2022/02/10 22:38:38;;;;;;;10.02;5.10;;;5.90;99.90;;;;;;5069280;28;20258;-72
2022/02/10 22:41:09;;;;;;;13.60;5.30;;;5.90;99.90;;;;;;5069653;28;20231;-73
2022/02/10 22:43:36;;;;;;;9.55;4.90;;;5.90;99.90;;;;;;5068411;28;20273;-72
2022/02/10 22:46:03;;;;;;;6.75;4.80;;;5.90;99.90;;;;;;5068454;28;20711;-73
2022/02/10 22:48:31;;;;;;;6.47;4.80;;;6.00;99.90;;;;;;5069445;28;20223;-73
2022/02/10 22:50:58;;;;;;;6.80;4.28;;;6.00;99.90;;;;;;5069332;28;20200;-73
2022/02/10 22:53:25;;;;;;;4.18;3.63;;;6.00;99.90;;;;;;5069098;28;20200;-72
2022/02/10 22:55:52;;;;;;;5.05;4.13;;;6.10;99.90;;;;;;5068569;28;20231;-71
2022/02/10 22:58:20;;;;;;;3.90;3.38;;;6.10;99.90;;;;;;5068832;28;20200;-72
2022/02/10 23:00:47;;;;;;;6.32;3.60;;;6.10;99.90;;;;;;5069245;28;20624;-71
2022/02/10 23:03:15;;;;;;;4.28;3.60;;;6.10;99.90;;;;;;5068724;28;20208;-72
2022/02/10 23:05:43;;;;;;;4.60;4.10;;;6.10;99.90;;;;;;5068182;28;20227;-71
2022/02/10 23:08:12;;;;;;;5.00;3.55;;;6.10;99.90;;;;;;5070050;28;20205;-72
2022/02/10 23:10:43;;;;;;;5.10;3.60;;;6.20;99.90;;;;;;5072058;28;20211;-72
2022/02/10 23:13:10;;;;;;;5.97;3.80;;;6.20;99.90;;;;;;5073407;28;20558;-71
2022/02/10 23:15:38;;;;;;;5.00;3.70;;;6.20;99.90;;;;;;5072764;28;20561;-71
2022/02/10 23:18:10;;;;;;;4.35;3.53;;;6.10;99.90;;;;;;5073001;28;20200;-73
2022/02/10 23:20:37;;;;;;;6.65;3.85;;;6.20;99.90;;;;;;5072227;28;20269;-72
2022/02/10 23:23:08;;;;;;;4.50;3.63;;;6.20;99.90;;;;;;5072662;28;20215;-72
2022/02/10 23:25:35;;;;;;;4.60;4.03;;;6.10;99.90;;;;;;5071847;28;20648;-71
2022/02/10 23:28:04;;;;;;;6.57;4.32;;;6.10;99.90;;;;;;5072223;28;20211;-72
2022/02/10 23:30:31;;;;;;;6.43;3.95;;;6.20;99.90;;;;;;5072408;28;20568;-72
2022/02/10 23:33:03;;;;;;;5.50;3.67;;;6.20;99.90;;;;;;5071737;28;20208;-71
2022/02/10 23:38:30;;;;;;;5.72;4.15;;;6.20;99.90;;;;;;5062657;28;20178;-95
2022/02/10 23:43:41;;;;;;;4.68;3.83;;;6.30;99.90;;;;;;5099638;28;20173;-96
2022/02/10 23:46:08;;;;;;;5.22;3.60;;;6.30;99.90;;;;;;5100216;28;20232;-95
2022/02/10 23:48:36;;;;;;;7.18;4.00;;;6.30;99.90;;;;;;5100008;28;20244;-95
2022/02/10 23:51:04;;;;;;;5.18;4.30;;;6.30;99.90;;;;;;5099850;28;20177;-95
2022/02/10 23:53:33;;;;;;;9.38;4.65;;;6.40;99.90;;;;;;5099635;28;20211;-95
2022/02/10 23:59:31;;;;;;;4.70;3.40;;;6.40;99.90;;;;;;5078119;22;20237;-71
